createdAt,value
2018-12-25T00:17:08.855Z,70.50
2018-12-25T00:21:33.874Z,69.00
2018-12-25T00:25:52.115Z,74.10
2018-12-25T00:30:17.124Z,76.90
2018-12-25T00:34:34.740Z,72.40
2018-12-25T00:39:01.457Z,69.30
2018-12-25T00:43:19.064Z,68.60
2018-12-25T00:47:44.099Z,68.20
2018-12-25T00:52:01.571Z,67.70
2018-12-25T00:56:26.575Z,67.80
2018-12-25T01:00:44.563Z,66.60
2018-12-25T01:09:46.475Z,71.70
2018-12-25T01:14:04.758Z,73.80
2018-12-25T01:18:41.332Z,73.40
2018-12-25T01:23:06.396Z,71.20
2018-12-25T01:27:24.653Z,70.50
2018-12-25T01:31:49.767Z,69.90
2018-12-25T01:36:07.381Z,70.00
2018-12-25T01:40:32.471Z,69.90
2018-12-25T01:44:48.419Z,70.30
2018-12-25T01:49:13.569Z,72.20
2018-12-25T01:53:31.373Z,74.60
2018-12-25T02:02:31.391Z,82.70
2018-12-25T02:06:56.416Z,81.20
2018-12-25T02:11:02.194Z,84.60
2018-12-25T02:15:07.998Z,71.00
2018-12-25T02:19:13.664Z,78.10
2018-12-25T02:23:19.425Z,75.20
2018-12-25T02:27:25.123Z,74.90
2018-12-25T02:31:30.852Z,77.10
2018-12-25T02:35:36.510Z,80.10
2018-12-25T02:39:42.176Z,74.60
2018-12-25T02:43:47.868Z,78.20
2018-12-25T02:47:53.607Z,86.60
2018-12-25T02:51:59.332Z,82.10
2018-12-25T02:56:05.017Z,76.90
2018-12-25T03:00:10.728Z,76.50
2018-12-25T03:04:16.404Z,77.30
2018-12-25T03:08:22.156Z,76.90
2018-12-25T03:12:27.849Z,84.40
2018-12-25T03:16:33.545Z,78.10
2018-12-25T03:20:39.216Z,78.00
2018-12-25T03:24:44.992Z,79.10
2018-12-25T03:28:50.676Z,77.60
2018-12-25T03:32:56.413Z,82.60
2018-12-25T03:37:02.077Z,83.40
2018-12-25T03:41:07.775Z,79.10
2018-12-25T03:45:13.473Z,79.20
2018-12-25T03:49:19.153Z,80.50
2018-12-25T03:53:24.844Z,74.70
2018-12-25T03:57:30.515Z,80.50
2018-12-25T04:01:36.196Z,84.90
2018-12-25T04:11:49.923Z,82.60
2018-12-25T04:16:49.550Z,78.00
2018-12-25T04:20:55.275Z,80.00
2018-12-25T04:25:48.825Z,82.70
2018-12-25T04:29:54.486Z,84.30
2018-12-25T04:34:48.465Z,83.70
2018-12-25T04:38:54.178Z,78.60
2018-12-25T04:43:50.747Z,83.80
2018-12-25T04:47:56.434Z,77.50
2018-12-25T04:52:50.065Z,79.70
2018-12-25T04:56:55.748Z,84.30
2018-12-25T05:01:49.395Z,87.30
2018-12-25T05:05:55.059Z,80.90
2018-12-25T05:10:48.973Z,78.30
2018-12-25T05:14:54.658Z,74.60
2018-12-25T05:19:48.401Z,70.00
2018-12-25T05:23:54.174Z,71.10
2018-12-25T05:28:47.765Z,70.80
2018-12-25T05:32:53.452Z,70.70
2018-12-25T05:37:50.304Z,71.80
2018-12-25T05:42:07.957Z,71.80
2018-12-25T05:46:25.524Z,71.40
2018-12-25T05:50:50.637Z,71.70
2018-12-25T05:55:08.174Z,75.00
2018-12-25T05:59:52.534Z,80.10
2018-12-25T06:04:08.658Z,79.00
2018-12-25T06:08:52.994Z,76.00
2018-12-25T06:13:29.736Z,79.40
2018-12-25T06:17:50.209Z,79.40
2018-12-25T06:22:15.240Z,80.70
2018-12-25T06:26:52.681Z,79.30
2018-12-25T06:31:10.264Z,78.70
2018-12-25T06:35:50.190Z,84.20
2018-12-25T06:39:55.861Z,83.50
2018-12-25T06:44:01.552Z,77.30
2018-12-25T06:49:05.205Z,78.50
2018-12-25T06:53:48.139Z,79.50
2018-12-25T06:58:13.174Z,77.70
2018-12-25T07:02:50.165Z,78.00
2018-12-25T07:22:03.695Z,83.50
2018-12-25T07:26:49.239Z,79.50
2018-12-25T07:31:14.302Z,80.20
2018-12-25T07:35:51.519Z,76.50
2018-12-25T07:40:16.540Z,82.00
2018-12-25T07:44:53.365Z,83.70
2018-12-25T07:49:18.399Z,75.60
2018-12-25T07:53:55.551Z,77.00
2018-12-25T07:58:13.768Z,83.80
2018-12-25T08:02:51.256Z,80.10
2018-12-25T08:07:16.288Z,73.70
2018-12-25T08:11:53.705Z,83.50
2018-12-25T09:59:47.832Z,68.90
2018-12-25T10:16:47.038Z,66.60
2018-12-25T10:56:46.873Z,66.00
2018-12-25T11:07:48.447Z,63.00
2018-12-25T11:29:47.682Z,65.80
2018-12-25T11:34:46.865Z,65.80
2018-12-25T11:51:46.991Z,64.00
2018-12-25T12:02:50.908Z,54.50
2018-12-25T12:31:38.099Z,62.50
2018-12-25T12:35:54.250Z,61.40
2018-12-25T12:40:12.156Z,62.80
2018-12-25T12:49:39.869Z,63.10
2018-12-25T12:53:57.535Z,62.80
2018-12-25T13:03:17.469Z,61.90
2018-12-25T13:07:35.061Z,62.00
2018-12-25T13:11:52.704Z,60.90
2018-12-25T13:16:17.721Z,59.60
2018-12-25T13:20:35.767Z,61.30
2018-12-25T13:34:27.003Z,64.50
2018-12-25T13:43:34.697Z,64.80
2018-12-25T13:47:59.764Z,67.30
2018-12-25T13:52:19.530Z,67.00
2018-12-25T13:56:44.568Z,66.50
2018-12-25T14:01:02.414Z,65.10
2018-12-25T14:05:27.431Z,67.60
2018-12-25T14:09:45.432Z,68.00
2018-12-25T14:18:47.168Z,67.20
2018-12-25T14:23:11.229Z,67.50
2018-12-25T14:27:32.191Z,65.50
2018-12-25T14:31:49.995Z,68.30
2018-12-25T14:40:51.416Z,67.90
2018-12-25T14:45:09.385Z,68.20
2018-12-25T14:49:15.043Z,68.70
2018-12-25T14:53:20.720Z,69.70
2018-12-25T14:57:27.935Z,69.50
2018-12-25T15:01:33.641Z,69.30
2018-12-25T15:05:39.306Z,70.10
2018-12-25T15:09:45.010Z,70.60
2018-12-25T15:13:50.706Z,72.00
2018-12-25T15:17:56.393Z,70.60
2018-12-25T15:22:02.079Z,71.30
2018-12-25T15:26:07.768Z,71.60
2018-12-25T15:30:13.467Z,69.60
2018-12-25T15:34:19.170Z,70.00
2018-12-25T15:38:24.842Z,70.50
2018-12-25T15:42:30.521Z,71.50
2018-12-25T15:46:36.209Z,69.10
2018-12-25T15:50:41.906Z,70.80
2018-12-25T15:54:47.597Z,70.20
2018-12-25T15:58:53.337Z,70.90
2018-12-25T16:02:59.085Z,69.80
2018-12-25T16:07:04.874Z,71.20
2018-12-25T16:11:10.565Z,69.00
2018-12-25T16:15:16.260Z,69.40
2018-12-25T16:19:21.931Z,68.60
2018-12-25T16:23:27.617Z,68.10
2018-12-25T16:27:33.313Z,68.40
2018-12-25T16:31:39.028Z,68.00
2018-12-25T16:35:44.824Z,69.60
2018-12-25T16:39:50.578Z,70.00
2018-12-25T16:43:56.288Z,71.20
2018-12-25T16:48:02.004Z,70.70
2018-12-25T16:52:07.665Z,69.40
2018-12-25T16:56:13.361Z,69.20
2018-12-25T17:00:19.040Z,69.40
2018-12-25T17:04:24.729Z,69.60
2018-12-25T17:08:30.428Z,70.80
2018-12-25T17:12:36.104Z,70.30
2018-12-25T17:16:41.799Z,70.00
2018-12-25T17:20:47.543Z,67.80
2018-12-25T17:24:53.252Z,69.20
2018-12-25T17:29:50.239Z,69.90
2018-12-25T17:33:55.939Z,71.20
2018-12-25T17:38:02.605Z,71.30
2018-12-25T17:42:08.294Z,71.40
2018-12-25T17:46:14.037Z,69.90
2018-12-25T17:50:19.759Z,68.20
2018-12-25T17:54:25.436Z,71.10
2018-12-25T17:58:31.151Z,72.10
2018-12-25T18:02:36.835Z,71.60
2018-12-25T18:06:42.535Z,72.20
2018-12-25T18:10:48.226Z,71.80
2018-12-25T18:14:53.986Z,71.60
2018-12-25T18:18:59.636Z,68.90
2018-12-25T18:23:05.306Z,69.00
2018-12-25T18:27:11.003Z,70.50
2018-12-25T18:31:16.698Z,71.40
2018-12-25T18:35:22.454Z,69.50
2018-12-25T18:39:28.141Z,70.70
2018-12-25T18:43:33.812Z,73.80
2018-12-25T18:47:39.505Z,74.90
2018-12-25T18:51:45.214Z,74.80
2018-12-25T18:55:50.974Z,74.70
2018-12-25T18:59:56.636Z,75.30
2018-12-25T19:04:03.380Z,73.90
2018-12-25T19:08:09.133Z,71.30
2018-12-25T19:12:15.794Z,72.10
2018-12-25T19:16:21.488Z,72.50
2018-12-25T19:20:27.237Z,74.90
2018-12-25T19:24:36.381Z,74.00
2018-12-25T19:28:40.329Z,73.30
2018-12-25T19:32:47.021Z,72.20
2018-12-25T19:36:52.795Z,72.00
2018-12-25T19:40:58.490Z,71.40
2018-12-25T19:45:04.819Z,72.30
2018-12-25T19:49:10.504Z,70.70
2018-12-25T19:53:16.433Z,71.80
2018-12-25T19:57:22.135Z,72.00
2018-12-25T20:01:27.831Z,71.20
2018-12-25T20:06:25.808Z,72.10
2018-12-25T20:11:04.119Z,71.50
2018-12-25T20:15:46.780Z,73.40
2018-12-25T20:20:08.644Z,76.60
2018-12-25T20:24:31.733Z,74.90
2018-12-25T20:29:02.867Z,73.80
2018-12-25T20:33:25.990Z,72.50
2018-12-25T20:38:19.017Z,74.40
2018-12-25T20:42:49.703Z,75.00
2018-12-25T20:47:26.939Z,73.80
2018-12-25T20:51:37.290Z,74.10
2018-12-25T20:56:22.278Z,72.60
2018-12-25T21:01:03.914Z,73.10
2018-12-25T21:05:19.573Z,72.30
2018-12-25T21:16:47.960Z,72.60
2018-12-25T21:21:40.040Z,72.20
2018-12-25T21:26:39.504Z,72.80
2018-12-25T21:30:51.535Z,72.30
2018-12-25T21:35:48.479Z,71.50
2018-12-25T21:39:54.479Z,70.60
2018-12-25T21:44:00.428Z,71.60
2018-12-25T21:48:06.238Z,72.10
2018-12-25T21:52:12.107Z,71.20
2018-12-25T21:56:17.883Z,71.90
2018-12-25T22:00:50.979Z,72.00
2018-12-25T22:04:56.971Z,71.50
2018-12-25T22:09:02.781Z,71.50
2018-12-25T22:13:08.466Z,71.60
2018-12-25T22:17:14.175Z,70.80
2018-12-25T22:21:49.573Z,70.40
2018-12-25T22:25:55.344Z,69.50
2018-12-25T22:30:01.334Z,70.30
2018-12-25T22:34:24.884Z,68.60
2018-12-25T22:38:30.558Z,70.30
2018-12-25T22:42:36.250Z,70.20
2018-12-25T22:46:51.103Z,69.70
2018-12-25T22:50:56.840Z,69.90
2018-12-25T22:55:02.513Z,69.40
2018-12-25T22:59:08.224Z,68.20
2018-12-25T23:03:49.373Z,69.20
2018-12-25T23:07:55.120Z,69.00
2018-12-25T23:12:01.800Z,69.20
2018-12-25T23:16:08.103Z,68.40
2018-12-25T23:20:14.826Z,68.70
2018-12-25T23:24:20.577Z,67.70
2018-12-25T23:28:26.369Z,69.50
2018-12-25T23:32:32.059Z,68.20
2018-12-25T23:36:37.746Z,68.30
2018-12-25T23:40:43.437Z,69.10
2018-12-25T23:44:49.118Z,69.20
2018-12-25T23:48:54.807Z,68.40
2018-12-25T23:53:00.631Z,70.50
2018-12-25T23:57:06.449Z,69.80
